sensor_id;sensor_type;location;lat;lon;timestamp;temperature;humidity
15656;DHT22;7928;43.614;1.456;2022-10-31T00:01:52;19.40;99.90
15656;DHT22;7928;43.614;1.456;2022-10-31T00:04:19;19.40;99.90
15656;DHT22;7928;43.614;1.456;2022-10-31T00:06:47;19.40;99.90
15656;DHT22;7928;43.614;1.456;2022-10-31T00:09:14;19.40;99.90
15656;DHT22;7928;43.614;1.456;2022-10-31T00:11:41;19.50;99.90
15656;DHT22;7928;43.614;1.456;2022-10-31T00:14:08;19.50;99.90
15656;DHT22;7928;43.614;1.456;2022-10-31T00:16:35;19.40;99.90
15656;DHT22;7928;43.614;1.456;2022-10-31T00:19:04;19.40;99.90
15656;DHT22;7928;43.614;1.456;2022-10-31T00:21:32;19.40;99.90
15656;DHT22;7928;43.614;1.456;2022-10-31T00:24:01;19.30;99.90
15656;DHT22;7928;43.614;1.456;2022-10-31T00:26:29;19.30;99.90
15656;DHT22;7928;43.614;1.456;2022-10-31T00:28:57;19.30;99.90
15656;DHT22;7928;43.614;1.456;2022-10-31T00:31:24;19.30;99.90
15656;DHT22;7928;43.614;1.456;2022-10-31T00:33:51;19.30;99.90
15656;DHT22;7928;43.614;1.456;2022-10-31T00:36:19;19.30;99.90
15656;DHT22;7928;43.614;1.456;2022-10-31T00:38:47;19.20;99.90
15656;DHT22;7928;43.614;1.456;2022-10-31T00:41:16;19.30;99.90
15656;DHT22;7928;43.614;1.456;2022-10-31T00:43:44;19.30;99.90
15656;DHT22;7928;43.614;1.456;2022-10-31T00:46:11;19.30;99.90
15656;DHT22;7928;43.614;1.456;2022-10-31T00:48:38;19.30;99.90
15656;DHT22;7928;43.614;1.456;2022-10-31T00:51:05;19.30;99.90
15656;DHT22;7928;43.614;1.456;2022-10-31T00:53:33;19.30;99.90
15656;DHT22;7928;43.614;1.456;2022-10-31T00:56:00;19.30;99.90
15656;DHT22;7928;43.614;1.456;2022-10-31T00:58:28;19.20;99.90
15656;DHT22;7928;43.614;1.456;2022-10-31T01:00:55;19.20;99.90
15656;DHT22;7928;43.614;1.456;2022-10-31T01:03:23;19.20;99.90
15656;DHT22;7928;43.614;1.456;2022-10-31T01:05:58;19.10;99.90
15656;DHT22;7928;43.614;1.456;2022-10-31T01:08:25;19.10;99.90
15656;DHT22;7928;43.614;1.456;2022-10-31T01:11:00;19.00;99.90
15656;DHT22;7928;43.614;1.456;2022-10-31T01:13:28;19.00;99.90
15656;DHT22;7928;43.614;1.456;2022-10-31T01:15:56;18.90;99.90
15656;DHT22;7928;43.614;1.456;2022-10-31T01:18:24;18.90;99.90
15656;DHT22;7928;43.614;1.456;2022-10-31T01:20:59;18.80;99.90
15656;DHT22;7928;43.614;1.456;2022-10-31T01:23:27;18.80;99.90
15656;DHT22;7928;43.614;1.456;2022-10-31T01:26:06;18.80;99.90
15656;DHT22;7928;43.614;1.456;2022-10-31T01:28:36;18.80;99.90
15656;DHT22;7928;43.614;1.456;2022-10-31T01:31:06;18.80;99.90
15656;DHT22;7928;43.614;1.456;2022-10-31T01:33:33;18.80;99.90
15656;DHT22;7928;43.614;1.456;2022-10-31T01:36:01;18.80;99.90
15656;DHT22;7928;43.614;1.456;2022-10-31T01:38:37;18.80;99.90
15656;DHT22;7928;43.614;1.456;2022-10-31T01:41:04;18.70;99.90
15656;DHT22;7928;43.614;1.456;2022-10-31T01:43:44;18.70;99.90
15656;DHT22;7928;43.614;1.456;2022-10-31T01:46:11;18.70;99.90
15656;DHT22;7928;43.614;1.456;2022-10-31T01:48:40;18.70;99.90
15656;DHT22;7928;43.614;1.456;2022-10-31T01:51:08;18.70;99.90
15656;DHT22;7928;43.614;1.456;2022-10-31T01:53:36;18.60;99.90
15656;DHT22;7928;43.614;1.456;2022-10-31T01:56:04;18.60;99.90
15656;DHT22;7928;43.614;1.456;2022-10-31T01:58:32;18.60;99.90
15656;DHT22;7928;43.614;1.456;2022-10-31T02:01:01;18.60;99.90
15656;DHT22;7928;43.614;1.456;2022-10-31T02:03:29;18.60;99.90
15656;DHT22;7928;43.614;1.456;2022-10-31T02:05:57;18.60;99.90
15656;DHT22;7928;43.614;1.456;2022-10-31T02:08:27;18.60;99.90
15656;DHT22;7928;43.614;1.456;2022-10-31T02:10:56;18.50;99.90
15656;DHT22;7928;43.614;1.456;2022-10-31T02:13:24;18.50;99.90
15656;DHT22;7928;43.614;1.456;2022-10-31T02:15:55;18.50;99.90
15656;DHT22;7928;43.614;1.456;2022-10-31T02:18:25;18.40;99.90
15656;DHT22;7928;43.614;1.456;2022-10-31T02:21:00;18.40;99.90
15656;DHT22;7928;43.614;1.456;2022-10-31T02:24:10;18.50;99.90
15656;DHT22;7928;43.614;1.456;2022-10-31T02:26:52;18.40;99.90
15656;DHT22;7928;43.614;1.456;2022-10-31T02:32:30;18.40;99.90
15656;DHT22;7928;43.614;1.456;2022-10-31T02:35:03;18.40;99.90
15656;DHT22;7928;43.614;1.456;2022-10-31T02:37:38;18.30;99.90
15656;DHT22;7928;43.614;1.456;2022-10-31T02:40:14;18.30;99.90
15656;DHT22;7928;43.614;1.456;2022-10-31T02:42:49;18.30;99.90
15656;DHT22;7928;43.614;1.456;2022-10-31T02:45:23;18.30;99.90
15656;DHT22;7928;43.614;1.456;2022-10-31T02:47:55;18.30;99.90
15656;DHT22;7928;43.614;1.456;2022-10-31T02:50:28;18.20;99.90
15656;DHT22;7928;43.614;1.456;2022-10-31T02:52:56;18.20;99.90
15656;DHT22;7928;43.614;1.456;2022-10-31T02:55:44;18.20;99.90
15656;DHT22;7928;43.614;1.456;2022-10-31T02:58:14;18.20;99.90
15656;DHT22;7928;43.614;1.456;2022-10-31T03:03:46;18.30;99.90
15656;DHT22;7928;43.614;1.456;2022-10-31T03:06:22;18.30;99.90
15656;DHT22;7928;43.614;1.456;2022-10-31T03:08:58;18.30;99.90
15656;DHT22;7928;43.614;1.456;2022-10-31T03:11:31;18.20;99.90
15656;DHT22;7928;43.614;1.456;2022-10-31T03:14:05;18.20;99.90
15656;DHT22;7928;43.614;1.456;2022-10-31T03:16:40;18.20;99.90
15656;DHT22;7928;43.614;1.456;2022-10-31T03:19:12;18.20;99.90
15656;DHT22;7928;43.614;1.456;2022-10-31T03:21:45;18.20;99.90
15656;DHT22;7928;43.614;1.456;2022-10-31T03:24:14;18.10;99.90
15656;DHT22;7928;43.614;1.456;2022-10-31T03:26:46;18.10;99.90
15656;DHT22;7928;43.614;1.456;2022-10-31T03:29:16;18.10;99.90
15656;DHT22;7928;43.614;1.456;2022-10-31T03:31:49;18.10;99.90
15656;DHT22;7928;43.614;1.456;2022-10-31T03:34:19;18.10;99.90
15656;DHT22;7928;43.614;1.456;2022-10-31T03:36:50;18.10;99.90
15656;DHT22;7928;43.614;1.456;2022-10-31T03:39:20;18.10;99.90
15656;DHT22;7928;43.614;1.456;2022-10-31T03:41:54;18.10;99.90
15656;DHT22;7928;43.614;1.456;2022-10-31T03:44:24;18.10;99.90
15656;DHT22;7928;43.614;1.456;2022-10-31T03:46:53;18.10;99.90
15656;DHT22;7928;43.614;1.456;2022-10-31T03:49:22;18.10;99.90
15656;DHT22;7928;43.614;1.456;2022-10-31T03:51:54;18.10;99.90
15656;DHT22;7928;43.614;1.456;2022-10-31T03:54:27;18.00;99.90
15656;DHT22;7928;43.614;1.456;2022-10-31T03:56:58;18.00;99.90
15656;DHT22;7928;43.614;1.456;2022-10-31T03:59:32;18.00;99.90
15656;DHT22;7928;43.614;1.456;2022-10-31T04:02:03;18.00;99.90
15656;DHT22;7928;43.614;1.456;2022-10-31T04:04:34;18.00;99.90
15656;DHT22;7928;43.614;1.456;2022-10-31T04:07:03;18.00;99.90
15656;DHT22;7928;43.614;1.456;2022-10-31T04:09:33;18.00;99.90
15656;DHT22;7928;43.614;1.456;2022-10-31T04:12:03;18.00;99.90
15656;DHT22;7928;43.614;1.456;2022-10-31T04:14:33;18.00;99.90
15656;DHT22;7928;43.614;1.456;2022-10-31T04:17:03;17.90;99.90
15656;DHT22;7928;43.614;1.456;2022-10-31T04:19:34;17.90;99.90
15656;DHT22;7928;43.614;1.456;2022-10-31T04:22:01;17.90;99.90
15656;DHT22;7928;43.614;1.456;2022-10-31T04:24:28;17.90;99.90
15656;DHT22;7928;43.614;1.456;2022-10-31T04:26:55;17.90;99.90
15656;DHT22;7928;43.614;1.456;2022-10-31T04:29:23;17.80;99.90
15656;DHT22;7928;43.614;1.456;2022-10-31T04:31:50;17.80;99.90
15656;DHT22;7928;43.614;1.456;2022-10-31T04:34:17;17.80;99.90
15656;DHT22;7928;43.614;1.456;2022-10-31T04:36:46;17.70;99.90
15656;DHT22;7928;43.614;1.456;2022-10-31T04:39:13;17.70;99.90
15656;DHT22;7928;43.614;1.456;2022-10-31T04:41:40;17.70;99.90
15656;DHT22;7928;43.614;1.456;2022-10-31T04:44:07;17.60;99.90
15656;DHT22;7928;43.614;1.456;2022-10-31T04:46:35;17.50;99.90
15656;DHT22;7928;43.614;1.456;2022-10-31T04:49:02;17.50;99.90
15656;DHT22;7928;43.614;1.456;2022-10-31T04:51:29;17.50;99.90
15656;DHT22;7928;43.614;1.456;2022-10-31T04:53:58;17.40;99.90
15656;DHT22;7928;43.614;1.456;2022-10-31T04:56:25;17.40;99.90
15656;DHT22;7928;43.614;1.456;2022-10-31T04:58:52;17.40;99.90
15656;DHT22;7928;43.614;1.456;2022-10-31T05:01:19;17.30;99.90
15656;DHT22;7928;43.614;1.456;2022-10-31T05:03:46;17.30;99.90
15656;DHT22;7928;43.614;1.456;2022-10-31T05:06:13;17.30;99.90
15656;DHT22;7928;43.614;1.456;2022-10-31T05:08:42;17.30;99.90
15656;DHT22;7928;43.614;1.456;2022-10-31T05:11:10;17.20;99.90
15656;DHT22;7928;43.614;1.456;2022-10-31T05:13:38;17.10;99.90
15656;DHT22;7928;43.614;1.456;2022-10-31T05:16:05;17.00;99.90
15656;DHT22;7928;43.614;1.456;2022-10-31T05:18:32;16.90;99.90
15656;DHT22;7928;43.614;1.456;2022-10-31T05:21:00;16.80;99.90
15656;DHT22;7928;43.614;1.456;2022-10-31T05:23:27;16.80;99.90
15656;DHT22;7928;43.614;1.456;2022-10-31T05:25:54;16.70;99.90
15656;DHT22;7928;43.614;1.456;2022-10-31T05:28:22;16.70;99.90
15656;DHT22;7928;43.614;1.456;2022-10-31T05:30:50;16.60;99.90
15656;DHT22;7928;43.614;1.456;2022-10-31T05:33:17;16.50;99.90
15656;DHT22;7928;43.614;1.456;2022-10-31T05:35:44;16.50;99.90
15656;DHT22;7928;43.614;1.456;2022-10-31T05:38:11;16.40;99.90
15656;DHT22;7928;43.614;1.456;2022-10-31T05:40:38;16.70;99.90
15656;DHT22;7928;43.614;1.456;2022-10-31T05:43:05;17.10;99.90
15656;DHT22;7928;43.614;1.456;2022-10-31T05:45:33;17.40;99.90
15656;DHT22;7928;43.614;1.456;2022-10-31T05:48:01;17.50;99.90
15656;DHT22;7928;43.614;1.456;2022-10-31T05:50:30;17.60;99.90
15656;DHT22;7928;43.614;1.456;2022-10-31T05:52:59;17.60;99.90
15656;DHT22;7928;43.614;1.456;2022-10-31T05:55:26;17.70;99.90
15656;DHT22;7928;43.614;1.456;2022-10-31T05:57:54;17.70;99.90
15656;DHT22;7928;43.614;1.456;2022-10-31T06:00:22;17.80;99.90
15656;DHT22;7928;43.614;1.456;2022-10-31T06:02:57;17.80;99.90
15656;DHT22;7928;43.614;1.456;2022-10-31T06:05:25;17.80;99.90
15656;DHT22;7928;43.614;1.456;2022-10-31T06:07:52;17.40;99.90
15656;DHT22;7928;43.614;1.456;2022-10-31T06:10:19;17.50;99.90
15656;DHT22;7928;43.614;1.456;2022-10-31T06:12:46;17.60;99.90
15656;DHT22;7928;43.614;1.456;2022-10-31T06:15:13;17.40;99.90
15656;DHT22;7928;43.614;1.456;2022-10-31T06:17:41;17.40;99.90
15656;DHT22;7928;43.614;1.456;2022-10-31T06:20:10;17.20;99.90
15656;DHT22;7928;43.614;1.456;2022-10-31T06:22:37;17.10;99.90
15656;DHT22;7928;43.614;1.456;2022-10-31T06:25:04;17.00;99.90
15656;DHT22;7928;43.614;1.456;2022-10-31T06:27:32;17.00;99.90
15656;DHT22;7928;43.614;1.456;2022-10-31T06:29:59;16.90;99.90
15656;DHT22;7928;43.614;1.456;2022-10-31T06:32:26;16.90;99.90
15656;DHT22;7928;43.614;1.456;2022-10-31T06:34:53;16.70;99.90
15656;DHT22;7928;43.614;1.456;2022-10-31T06:37:22;16.90;99.90
15656;DHT22;7928;43.614;1.456;2022-10-31T06:39:49;16.90;99.90
15656;DHT22;7928;43.614;1.456;2022-10-31T06:42:16;16.90;99.90
15656;DHT22;7928;43.614;1.456;2022-10-31T06:44:43;16.80;99.90
15656;DHT22;7928;43.614;1.456;2022-10-31T06:47:10;16.80;99.90
15656;DHT22;7928;43.614;1.456;2022-10-31T06:49:37;17.00;99.90
15656;DHT22;7928;43.614;1.456;2022-10-31T06:52:05;17.00;99.90
15656;DHT22;7928;43.614;1.456;2022-10-31T06:54:33;17.10;99.90
15656;DHT22;7928;43.614;1.456;2022-10-31T06:57:00;17.30;99.90
15656;DHT22;7928;43.614;1.456;2022-10-31T06:59:27;17.30;99.90
15656;DHT22;7928;43.614;1.456;2022-10-31T07:01:55;17.20;99.90
15656;DHT22;7928;43.614;1.456;2022-10-31T07:04:22;17.10;99.90
15656;DHT22;7928;43.614;1.456;2022-10-31T07:06:50;17.40;99.90
15656;DHT22;7928;43.614;1.456;2022-10-31T07:09:18;17.30;99.90
15656;DHT22;7928;43.614;1.456;2022-10-31T07:11:47;17.20;99.90
15656;DHT22;7928;43.614;1.456;2022-10-31T07:14:14;17.20;99.90
15656;DHT22;7928;43.614;1.456;2022-10-31T07:16:41;17.20;99.90
15656;DHT22;7928;43.614;1.456;2022-10-31T07:19:08;17.30;99.90
15656;DHT22;7928;43.614;1.456;2022-10-31T07:21:35;17.20;99.90
15656;DHT22;7928;43.614;1.456;2022-10-31T07:24:02;17.30;99.90
15656;DHT22;7928;43.614;1.456;2022-10-31T07:26:29;17.30;99.90
15656;DHT22;7928;43.614;1.456;2022-10-31T07:28:58;17.40;99.90
15656;DHT22;7928;43.614;1.456;2022-10-31T07:31:25;17.40;99.90
15656;DHT22;7928;43.614;1.456;2022-10-31T07:33:52;17.40;99.90
15656;DHT22;7928;43.614;1.456;2022-10-31T07:36:19;17.50;99.90
15656;DHT22;7928;43.614;1.456;2022-10-31T07:38:46;17.50;99.90
15656;DHT22;7928;43.614;1.456;2022-10-31T07:41:13;17.50;99.90
15656;DHT22;7928;43.614;1.456;2022-10-31T07:43:40;17.50;99.90
15656;DHT22;7928;43.614;1.456;2022-10-31T07:46:09;17.40;99.90
15656;DHT22;7928;43.614;1.456;2022-10-31T07:48:36;17.40;99.90
15656;DHT22;7928;43.614;1.456;2022-10-31T07:51:04;17.40;99.90
15656;DHT22;7928;43.614;1.456;2022-10-31T07:53:32;17.40;99.90
15656;DHT22;7928;43.614;1.456;2022-10-31T07:55:59;17.30;99.90
15656;DHT22;7928;43.614;1.456;2022-10-31T07:58:26;17.30;99.90
15656;DHT22;7928;43.614;1.456;2022-10-31T08:00:53;17.30;99.90
15656;DHT22;7928;43.614;1.456;2022-10-31T08:03:21;17.20;99.90
15656;DHT22;7928;43.614;1.456;2022-10-31T08:05:48;17.20;99.90
15656;DHT22;7928;43.614;1.456;2022-10-31T08:08:15;17.30;99.90
15656;DHT22;7928;43.614;1.456;2022-10-31T08:10:43;17.40;99.90
15656;DHT22;7928;43.614;1.456;2022-10-31T08:13:11;17.80;99.90
15656;DHT22;7928;43.614;1.456;2022-10-31T08:15:39;18.10;99.90
15656;DHT22;7928;43.614;1.456;2022-10-31T08:18:11;18.50;99.90
15656;DHT22;7928;43.614;1.456;2022-10-31T08:20:40;18.80;99.90
15656;DHT22;7928;43.614;1.456;2022-10-31T08:23:09;19.10;99.90
15656;DHT22;7928;43.614;1.456;2022-10-31T08:25:36;19.40;99.90
15656;DHT22;7928;43.614;1.456;2022-10-31T08:28:04;19.70;99.90
15656;DHT22;7928;43.614;1.456;2022-10-31T08:30:34;19.90;99.90
15656;DHT22;7928;43.614;1.456;2022-10-31T08:33:02;20.10;99.90
15656;DHT22;7928;43.614;1.456;2022-10-31T08:35:30;20.30;99.90
15656;DHT22;7928;43.614;1.456;2022-10-31T08:37:59;20.40;99.90
15656;DHT22;7928;43.614;1.456;2022-10-31T08:40:27;20.60;99.90
15656;DHT22;7928;43.614;1.456;2022-10-31T08:42:59;20.70;99.90
15656;DHT22;7928;43.614;1.456;2022-10-31T08:45:26;20.70;99.90
15656;DHT22;7928;43.614;1.456;2022-10-31T08:47:57;20.80;99.90
15656;DHT22;7928;43.614;1.456;2022-10-31T08:50:25;20.90;99.90
15656;DHT22;7928;43.614;1.456;2022-10-31T08:52:52;21.00;99.90
15656;DHT22;7928;43.614;1.456;2022-10-31T08:55:20;21.00;99.90
15656;DHT22;7928;43.614;1.456;2022-10-31T08:57:47;21.10;99.90
15656;DHT22;7928;43.614;1.456;2022-10-31T09:00:15;21.20;99.90
15656;DHT22;7928;43.614;1.456;2022-10-31T09:02:42;21.30;99.90
15656;DHT22;7928;43.614;1.456;2022-10-31T09:05:09;21.50;99.90
15656;DHT22;7928;43.614;1.456;2022-10-31T09:07:36;21.60;99.90
15656;DHT22;7928;43.614;1.456;2022-10-31T09:10:03;21.70;99.90
15656;DHT22;7928;43.614;1.456;2022-10-31T09:12:31;21.80;99.90
15656;DHT22;7928;43.614;1.456;2022-10-31T09:14:59;22.00;99.90
15656;DHT22;7928;43.614;1.456;2022-10-31T09:17:27;22.00;99.90
15656;DHT22;7928;43.614;1.456;2022-10-31T09:19:54;22.00;99.90
15656;DHT22;7928;43.614;1.456;2022-10-31T09:22:22;22.10;99.90
15656;DHT22;7928;43.614;1.456;2022-10-31T09:24:49;22.10;99.90
15656;DHT22;7928;43.614;1.456;2022-10-31T09:27:16;22.20;99.90
15656;DHT22;7928;43.614;1.456;2022-10-31T09:29:45;22.10;99.90
15656;DHT22;7928;43.614;1.456;2022-10-31T09:32:12;22.10;99.90
15656;DHT22;7928;43.614;1.456;2022-10-31T09:34:39;22.40;99.90
15656;DHT22;7928;43.614;1.456;2022-10-31T09:37:06;22.60;99.90
15656;DHT22;7928;43.614;1.456;2022-10-31T09:39:33;22.80;99.90
15656;DHT22;7928;43.614;1.456;2022-10-31T09:42:12;23.20;99.90
15656;DHT22;7928;43.614;1.456;2022-10-31T09:44:51;24.20;99.90
15656;DHT22;7928;43.614;1.456;2022-10-31T09:47:27;25.90;99.90
15656;DHT22;7928;43.614;1.456;2022-10-31T09:50:06;27.30;99.90
15656;DHT22;7928;43.614;1.456;2022-10-31T09:52:39;27.30;99.90
15656;DHT22;7928;43.614;1.456;2022-10-31T09:55:14;27.50;99.90
15656;DHT22;7928;43.614;1.456;2022-10-31T09:57:44;27.40;99.90
15656;DHT22;7928;43.614;1.456;2022-10-31T10:00:18;28.00;99.90
15656;DHT22;7928;43.614;1.456;2022-10-31T10:02:49;29.90;99.90
15656;DHT22;7928;43.614;1.456;2022-10-31T10:05:21;29.90;99.90
15656;DHT22;7928;43.614;1.456;2022-10-31T10:07:58;29.40;1.00
15656;DHT22;7928;43.614;1.456;2022-10-31T10:10:35;28.30;99.90
15656;DHT22;7928;43.614;1.456;2022-10-31T10:13:30;28.50;1.00
15656;DHT22;7928;43.614;1.456;2022-10-31T10:16:10;29.90;38.90
15656;DHT22;7928;43.614;1.456;2022-10-31T10:18:47;30.80;99.90
15656;DHT22;7928;43.614;1.456;2022-10-31T10:21:25;31.20;1.00
15656;DHT22;7928;43.614;1.456;2022-10-31T10:26:53;29.20;1.00
15656;DHT22;7928;43.614;1.456;2022-10-31T10:29:34;28.80;1.00
15656;DHT22;7928;43.614;1.456;2022-10-31T10:32:13;29.90;9.30
15656;DHT22;7928;43.614;1.456;2022-10-31T10:34:45;31.30;1.00
15656;DHT22;7928;43.614;1.456;2022-10-31T10:37:23;32.70;1.00
15656;DHT22;7928;43.614;1.456;2022-10-31T10:39:55;33.60;1.00
15656;DHT22;7928;43.614;1.456;2022-10-31T10:42:25;34.10;99.90
15656;DHT22;7928;43.614;1.456;2022-10-31T10:45:15;33.70;99.90
15656;DHT22;7928;43.614;1.456;2022-10-31T10:48:06;33.60;1.00
15656;DHT22;7928;43.614;1.456;2022-10-31T10:50:40;35.00;1.00
15656;DHT22;7928;43.614;1.456;2022-10-31T10:53:21;34.70;97.60
15656;DHT22;7928;43.614;1.456;2022-10-31T10:56:02;35.30;96.80
15656;DHT22;7928;43.614;1.456;2022-10-31T10:58:30;35.50;95.80
15656;DHT22;7928;43.614;1.456;2022-10-31T11:00:57;35.00;96.10
15656;DHT22;7928;43.614;1.456;2022-10-31T11:03:26;34.60;96.30
15656;DHT22;7928;43.614;1.456;2022-10-31T11:05:54;34.70;96.30
15656;DHT22;7928;43.614;1.456;2022-10-31T11:08:26;35.40;96.10
15656;DHT22;7928;43.614;1.456;2022-10-31T11:10:58;36.20;94.90
15656;DHT22;7928;43.614;1.456;2022-10-31T11:13:26;35.20;94.90
15656;DHT22;7928;43.614;1.456;2022-10-31T11:15:57;35.20;95.00
15656;DHT22;7928;43.614;1.456;2022-10-31T11:18:28;35.50;94.90
15656;DHT22;7928;43.614;1.456;2022-10-31T11:20:57;35.80;94.40
15656;DHT22;7928;43.614;1.456;2022-10-31T11:23:27;36.60;93.30
15656;DHT22;7928;43.614;1.456;2022-10-31T11:25:56;37.00;91.90
15656;DHT22;7928;43.614;1.456;2022-10-31T11:28:23;36.70;91.40
15656;DHT22;7928;43.614;1.456;2022-10-31T11:30:52;35.60;91.90
15656;DHT22;7928;43.614;1.456;2022-10-31T11:33:27;34.20;92.30
15656;DHT22;7928;43.614;1.456;2022-10-31T11:35:56;35.20;92.20
15656;DHT22;7928;43.614;1.456;2022-10-31T11:38:39;34.70;91.50
15656;DHT22;7928;43.614;1.456;2022-10-31T11:41:12;34.10;91.70
15656;DHT22;7928;43.614;1.456;2022-10-31T11:43:50;33.60;92.50
15656;DHT22;7928;43.614;1.456;2022-10-31T11:46:21;32.70;92.80
15656;DHT22;7928;43.614;1.456;2022-10-31T11:48:51;33.90;92.50
15656;DHT22;7928;43.614;1.456;2022-10-31T11:51:22;34.70;92.00
15656;DHT22;7928;43.614;1.456;2022-10-31T11:53:52;34.00;92.60
15656;DHT22;7928;43.614;1.456;2022-10-31T11:56:19;34.70;92.00
15656;DHT22;7928;43.614;1.456;2022-10-31T11:58:55;33.40;92.50
15656;DHT22;7928;43.614;1.456;2022-10-31T12:01:25;34.30;92.50
15656;DHT22;7928;43.614;1.456;2022-10-31T12:04:02;33.30;92.50
15656;DHT22;7928;43.614;1.456;2022-10-31T12:06:33;34.20;92.30
15656;DHT22;7928;43.614;1.456;2022-10-31T12:09:01;34.20;91.50
15656;DHT22;7928;43.614;1.456;2022-10-31T12:11:45;32.90;92.50
15656;DHT22;7928;43.614;1.456;2022-10-31T12:14:26;33.20;1.00
15656;DHT22;7928;43.614;1.456;2022-10-31T12:16:57;32.70;1.00
15656;DHT22;7928;43.614;1.456;2022-10-31T12:19:36;33.60;1.00
15656;DHT22;7928;43.614;1.456;2022-10-31T12:22:11;34.10;99.90
15656;DHT22;7928;43.614;1.456;2022-10-31T12:24:49;33.30;99.90
15656;DHT22;7928;43.614;1.456;2022-10-31T12:27:27;32.90;1.00
15656;DHT22;7928;43.614;1.456;2022-10-31T12:30:12;32.90;1.00
15656;DHT22;7928;43.614;1.456;2022-10-31T12:32:50;31.50;1.00
15656;DHT22;7928;43.614;1.456;2022-10-31T12:35:54;31.70;1.00
15656;DHT22;7928;43.614;1.456;2022-10-31T12:38:40;30.80;1.00
15656;DHT22;7928;43.614;1.456;2022-10-31T12:41:28;30.90;1.00
15656;DHT22;7928;43.614;1.456;2022-10-31T12:44:06;31.90;95.60
15656;DHT22;7928;43.614;1.456;2022-10-31T12:46:51;32.00;1.00
15656;DHT22;7928;43.614;1.456;2022-10-31T12:49:32;31.90;99.90
15656;DHT22;7928;43.614;1.456;2022-10-31T12:52:14;31.90;99.90
15656;DHT22;7928;43.614;1.456;2022-10-31T12:54:58;31.40;1.00
15656;DHT22;7928;43.614;1.456;2022-10-31T12:57:30;31.00;1.00
15656;DHT22;7928;43.614;1.456;2022-10-31T13:00:02;30.30;99.90
15656;DHT22;7928;43.614;1.456;2022-10-31T13:02:35;29.80;99.90
15656;DHT22;7928;43.614;1.456;2022-10-31T13:05:13;29.30;99.90
15656;DHT22;7928;43.614;1.456;2022-10-31T13:07:46;30.20;99.90
15656;DHT22;7928;43.614;1.456;2022-10-31T13:10:17;29.70;1.00
15656;DHT22;7928;43.614;1.456;2022-10-31T13:12:47;29.50;1.00
15656;DHT22;7928;43.614;1.456;2022-10-31T13:15:18;29.80;99.90
15656;DHT22;7928;43.614;1.456;2022-10-31T13:17:48;30.30;1.00
15656;DHT22;7928;43.614;1.456;2022-10-31T13:20:21;30.20;1.00
15656;DHT22;7928;43.614;1.456;2022-10-31T13:22:54;30.10;1.00
15656;DHT22;7928;43.614;1.456;2022-10-31T13:25:25;30.40;1.00
15656;DHT22;7928;43.614;1.456;2022-10-31T13:27:58;30.40;1.00
15656;DHT22;7928;43.614;1.456;2022-10-31T13:30:28;30.60;1.00
15656;DHT22;7928;43.614;1.456;2022-10-31T13:33:01;30.90;1.00
15656;DHT22;7928;43.614;1.456;2022-10-31T13:35:33;30.60;99.90
15656;DHT22;7928;43.614;1.456;2022-10-31T13:38:11;29.60;1.00
15656;DHT22;7928;43.614;1.456;2022-10-31T13:40:47;29.10;1.00
15656;DHT22;7928;43.614;1.456;2022-10-31T13:43:25;28.40;99.90
15656;DHT22;7928;43.614;1.456;2022-10-31T13:45:54;27.70;1.00
15656;DHT22;7928;43.614;1.456;2022-10-31T13:48:37;27.40;99.90
15656;DHT22;7928;43.614;1.456;2022-10-31T13:51:06;27.30;1.00
15656;DHT22;7928;43.614;1.456;2022-10-31T13:53:44;27.00;1.00
15656;DHT22;7928;43.614;1.456;2022-10-31T13:56:17;26.60;1.00
15656;DHT22;7928;43.614;1.456;2022-10-31T13:59:04;26.40;1.00
15656;DHT22;7928;43.614;1.456;2022-10-31T14:01:32;26.10;73.50
15656;DHT22;7928;43.614;1.456;2022-10-31T14:04:03;25.90;99.90
15656;DHT22;7928;43.614;1.456;2022-10-31T14:06:44;26.00;99.90
15656;DHT22;7928;43.614;1.456;2022-10-31T14:09:29;25.90;99.90
15656;DHT22;7928;43.614;1.456;2022-10-31T14:12:01;25.70;99.90
15656;DHT22;7928;43.614;1.456;2022-10-31T14:14:33;25.60;99.90
15656;DHT22;7928;43.614;1.456;2022-10-31T14:17:01;25.60;99.90
15656;DHT22;7928;43.614;1.456;2022-10-31T14:19:28;25.50;99.90
15656;DHT22;7928;43.614;1.456;2022-10-31T14:21:55;25.50;1.00
15656;DHT22;7928;43.614;1.456;2022-10-31T14:24:37;25.30;1.00
15656;DHT22;7928;43.614;1.456;2022-10-31T14:27:35;25.00;1.00
15656;DHT22;7928;43.614;1.456;2022-10-31T14:30:18;25.00;1.00
15656;DHT22;7928;43.614;1.456;2022-10-31T14:32:51;24.90;1.00
15656;DHT22;7928;43.614;1.456;2022-10-31T14:35:20;24.80;1.00
15656;DHT22;7928;43.614;1.456;2022-10-31T14:38:08;24.70;1.00
15656;DHT22;7928;43.614;1.456;2022-10-31T14:40:50;24.60;1.00
15656;DHT22;7928;43.614;1.456;2022-10-31T14:43:35;24.60;1.00
15656;DHT22;7928;43.614;1.456;2022-10-31T14:46:10;24.50;1.00
15656;DHT22;7928;43.614;1.456;2022-10-31T14:49:04;24.50;1.00
15656;DHT22;7928;43.614;1.456;2022-10-31T14:51:38;24.50;1.00
15656;DHT22;7928;43.614;1.456;2022-10-31T14:54:07;24.30;1.00
15656;DHT22;7928;43.614;1.456;2022-10-31T14:56:48;24.30;1.00
15656;DHT22;7928;43.614;1.456;2022-10-31T14:59:19;24.20;1.00
15656;DHT22;7928;43.614;1.456;2022-10-31T15:01:54;24.10;1.00
15656;DHT22;7928;43.614;1.456;2022-10-31T15:04:25;24.10;1.00
15656;DHT22;7928;43.614;1.456;2022-10-31T15:06:57;24.10;1.00
15656;DHT22;7928;43.614;1.456;2022-10-31T15:09:26;24.00;1.00
15656;DHT22;7928;43.614;1.456;2022-10-31T15:11:55;24.00;1.00
15656;DHT22;7928;43.614;1.456;2022-10-31T15:14:26;24.00;1.00
15656;DHT22;7928;43.614;1.456;2022-10-31T15:16:53;24.00;1.00
15656;DHT22;7928;43.614;1.456;2022-10-31T15:19:23;23.90;1.00
15656;DHT22;7928;43.614;1.456;2022-10-31T15:21:52;23.90;1.00
15656;DHT22;7928;43.614;1.456;2022-10-31T15:24:20;23.80;1.00
15656;DHT22;7928;43.614;1.456;2022-10-31T15:26:48;23.80;1.00
15656;DHT22;7928;43.614;1.456;2022-10-31T15:29:19;23.80;1.00
15656;DHT22;7928;43.614;1.456;2022-10-31T15:31:52;23.70;1.00
15656;DHT22;7928;43.614;1.456;2022-10-31T15:34:26;23.60;1.00
15656;DHT22;7928;43.614;1.456;2022-10-31T15:36:54;23.50;1.00
15656;DHT22;7928;43.614;1.456;2022-10-31T15:39:21;23.50;1.00
15656;DHT22;7928;43.614;1.456;2022-10-31T15:41:50;23.50;1.00
15656;DHT22;7928;43.614;1.456;2022-10-31T15:44:22;23.50;1.00
15656;DHT22;7928;43.614;1.456;2022-10-31T15:46:56;23.40;1.00
15656;DHT22;7928;43.614;1.456;2022-10-31T15:49:31;23.40;1.00
15656;DHT22;7928;43.614;1.456;2022-10-31T15:52:04;23.30;1.00
15656;DHT22;7928;43.614;1.456;2022-10-31T15:54:31;23.30;1.00
15656;DHT22;7928;43.614;1.456;2022-10-31T15:56:59;23.30;1.00
15656;DHT22;7928;43.614;1.456;2022-10-31T15:59:28;23.30;1.00
15656;DHT22;7928;43.614;1.456;2022-10-31T16:02:00;23.30;1.00
15656;DHT22;7928;43.614;1.456;2022-10-31T16:04:28;23.20;1.00
15656;DHT22;7928;43.614;1.456;2022-10-31T16:06:59;23.20;1.00
15656;DHT22;7928;43.614;1.456;2022-10-31T16:09:27;23.10;1.00
15656;DHT22;7928;43.614;1.456;2022-10-31T16:11:56;23.10;1.00
15656;DHT22;7928;43.614;1.456;2022-10-31T16:14:28;23.10;1.00
15656;DHT22;7928;43.614;1.456;2022-10-31T16:16:58;23.10;1.00
15656;DHT22;7928;43.614;1.456;2022-10-31T16:19:29;23.00;1.00
15656;DHT22;7928;43.614;1.456;2022-10-31T16:22:03;23.00;1.00
15656;DHT22;7928;43.614;1.456;2022-10-31T16:24:34;23.00;1.00